createdAt,value
2023-02-18T00:01:26.451Z,8.20
2023-02-18T00:03:55.083Z,9.00
2023-02-18T00:06:30.636Z,10.10
2023-02-18T00:09:02.542Z,10.70
2023-02-18T00:11:38.949Z,9.50
2023-02-18T00:14:17.528Z,10.00
2023-02-18T00:16:47.276Z,8.60
2023-02-18T00:19:19.165Z,8.50
2023-02-18T00:21:48.959Z,8.10
2023-02-18T00:24:18.737Z,7.40
2023-02-18T00:26:53.810Z,6.80
2023-02-18T00:29:23.962Z,6.30
2023-02-18T00:31:56.342Z,6.60
2023-02-18T00:34:33.022Z,5.30
2023-02-18T00:37:01.700Z,5.90
2023-02-18T00:39:50.936Z,3.10
2023-02-18T00:42:22.866Z,2.80
2023-02-18T00:44:57.128Z,3.70
2023-02-18T00:47:49.185Z,2.00
2023-02-18T00:50:19.498Z,3.60
2023-02-18T00:52:50.942Z,2.20
2023-02-18T00:55:18.436Z,1.40
2023-02-18T00:57:46.064Z,3.00
2023-02-18T01:00:15.469Z,2.70
2023-02-18T01:02:42.941Z,1.60
2023-02-18T01:05:10.374Z,2.00
2023-02-18T01:07:37.836Z,2.10
2023-02-18T01:10:06.447Z,1.50
2023-02-18T01:12:33.880Z,1.80
2023-02-18T01:15:04.638Z,2.00
2023-02-18T01:17:32.460Z,2.10
2023-02-18T01:20:00.491Z,3.00
2023-02-18T01:22:28.002Z,2.00
2023-02-18T01:24:55.383Z,4.10
2023-02-18T01:27:22.786Z,1.80
2023-02-18T01:29:52.512Z,1.50
2023-02-18T01:32:20.207Z,2.00
2023-02-18T01:34:47.665Z,1.40
2023-02-18T01:37:15.533Z,1.30
2023-02-18T01:39:53.341Z,1.50
2023-02-18T01:42:24.074Z,1.60
2023-02-18T01:44:51.958Z,1.40
2023-02-18T01:47:21.456Z,1.70
2023-02-18T01:49:53.981Z,1.30
2023-02-18T01:52:28.126Z,4.70
2023-02-18T01:54:58.705Z,2.90
2023-02-18T01:57:33.580Z,1.70
2023-02-18T02:00:09.249Z,0.90
2023-02-18T02:05:33.571Z,0.90
2023-02-18T02:08:02.585Z,1.70
2023-02-18T02:10:44.175Z,1.90
2023-02-18T02:13:39.569Z,1.10
2023-02-18T02:16:19.570Z,2.30
2023-02-18T02:19:06.993Z,3.80
2023-02-18T02:22:18.928Z,1.90
2023-02-18T02:25:10.988Z,1.80
2023-02-18T02:27:44.353Z,1.60
2023-02-18T02:30:45.583Z,1.60
2023-02-18T02:33:25.771Z,1.80
2023-02-18T02:36:19.143Z,2.40
2023-02-18T02:39:09.567Z,1.50
2023-02-18T02:41:47.734Z,1.70
2023-02-18T02:44:37.797Z,1.70
2023-02-18T02:47:26.342Z,1.00
2023-02-18T02:50:20.966Z,2.10
2023-02-18T02:52:57.702Z,1.70
2023-02-18T02:55:25.890Z,1.60
2023-02-18T02:57:59.112Z,1.30
2023-02-18T03:04:58.443Z,2.80
2023-02-18T03:07:53.199Z,1.10
2023-02-18T03:10:31.959Z,1.40
2023-02-18T03:13:27.602Z,1.90
2023-02-18T03:16:40.054Z,2.00
2023-02-18T03:19:34.782Z,2.70
2023-02-18T03:22:12.118Z,2.10
2023-02-18T03:25:09.374Z,2.40
2023-02-18T03:30:19.022Z,1.80
2023-02-18T03:32:48.834Z,3.40
2023-02-18T03:35:18.487Z,2.90
2023-02-18T03:38:02.318Z,2.00
2023-02-18T03:40:33.954Z,2.40
2023-02-18T03:43:35.457Z,2.50
2023-02-18T03:46:09.085Z,4.00
2023-02-18T03:48:43.303Z,1.60
2023-02-18T03:51:23.461Z,3.20
2023-02-18T03:54:08.904Z,1.70
2023-02-18T03:56:40.575Z,1.50
2023-02-18T03:59:20.399Z,2.30
2023-02-18T04:01:50.193Z,1.00
2023-02-18T04:04:20.596Z,1.30
2023-02-18T04:06:50.517Z,1.70
2023-02-18T04:09:24.749Z,1.20
2023-02-18T04:11:52.142Z,1.90
2023-02-18T04:14:19.340Z,1.40
2023-02-18T04:16:46.544Z,1.00
2023-02-18T04:19:14.124Z,1.80
2023-02-18T04:21:41.387Z,1.40
2023-02-18T04:24:08.579Z,2.90
2023-02-18T04:26:36.012Z,1.30
2023-02-18T04:29:04.859Z,1.00
2023-02-18T04:31:32.547Z,1.50
2023-02-18T04:34:00.020Z,1.70
2023-02-18T04:36:27.393Z,2.00
2023-02-18T04:38:54.609Z,1.30
2023-02-18T04:41:22.024Z,1.20
2023-02-18T04:43:49.325Z,1.90
2023-02-18T04:46:16.553Z,1.40
2023-02-18T04:48:44.762Z,1.70
2023-02-18T04:51:11.909Z,2.40
2023-02-18T04:53:39.255Z,3.30
2023-02-18T04:56:07.225Z,1.20
2023-02-18T04:58:36.501Z,0.60
2023-02-18T05:01:05.846Z,2.00
2023-02-18T05:03:34.141Z,1.80
2023-02-18T05:06:01.576Z,1.80
2023-02-18T05:08:28.701Z,1.40
2023-02-18T05:10:56.164Z,1.60
2023-02-18T05:13:24.071Z,2.00
2023-02-18T05:15:51.774Z,2.70
2023-02-18T05:18:19.051Z,1.40
2023-02-18T05:20:46.821Z,1.90
2023-02-18T05:23:15.428Z,0.60
2023-02-18T05:25:42.760Z,1.70
2023-02-18T05:28:10.130Z,1.30
2023-02-18T05:30:37.491Z,1.90
2023-02-18T05:33:05.030Z,1.40
2023-02-18T05:35:32.550Z,2.40
2023-02-18T05:37:59.802Z,1.60
2023-02-18T05:40:27.921Z,1.80
2023-02-18T05:42:55.648Z,1.70
2023-02-18T05:45:23.052Z,1.60
2023-02-18T05:47:50.866Z,0.90
2023-02-18T05:50:18.321Z,1.20
2023-02-18T05:52:45.455Z,2.90
2023-02-18T05:55:13.164Z,1.00
2023-02-18T05:57:40.948Z,2.40
2023-02-18T06:00:11.876Z,1.60
2023-02-18T06:02:39.288Z,2.20
2023-02-18T06:05:07.162Z,1.40
2023-02-18T06:07:34.574Z,1.50
2023-02-18T06:10:01.824Z,1.20
2023-02-18T06:12:29.520Z,1.20
2023-02-18T06:14:57.779Z,1.30
2023-02-18T06:17:25.529Z,2.10
2023-02-18T06:19:52.696Z,3.50
2023-02-18T06:22:20.318Z,2.60
2023-02-18T06:24:47.971Z,1.80
2023-02-18T06:27:15.382Z,1.40
2023-02-18T06:29:43.549Z,1.20
2023-02-18T06:32:11.178Z,2.80
2023-02-18T06:34:38.730Z,1.20
2023-02-18T06:37:06.009Z,0.90
2023-02-18T06:39:33.123Z,1.40
2023-02-18T06:42:01.080Z,1.60
2023-02-18T06:44:28.318Z,1.20
2023-02-18T06:46:55.620Z,1.90
2023-02-18T06:49:23.980Z,2.00
2023-02-18T06:51:51.124Z,2.50
2023-02-18T06:54:18.690Z,1.50
2023-02-18T06:56:46.102Z,2.40
2023-02-18T06:59:14.486Z,2.70
2023-02-18T07:01:42.821Z,2.60
2023-02-18T07:04:10.325Z,2.50
2023-02-18T07:06:37.572Z,2.00
2023-02-18T07:09:05.865Z,2.20
2023-02-18T07:11:34.173Z,2.20
2023-02-18T07:14:01.598Z,2.10
2023-02-18T07:16:28.969Z,2.90
2023-02-18T07:18:56.375Z,2.80
2023-02-18T07:21:23.590Z,2.20
2023-02-18T07:23:50.865Z,2.20
2023-02-18T07:26:18.324Z,1.90
2023-02-18T07:28:45.656Z,2.50
2023-02-18T07:31:14.311Z,2.20
2023-02-18T07:33:41.912Z,2.40
2023-02-18T07:36:15.252Z,2.70
2023-02-18T07:38:43.069Z,2.20
2023-02-18T07:41:20.761Z,2.80
2023-02-18T07:43:48.867Z,3.30
2023-02-18T07:46:19.038Z,3.20
2023-02-18T07:48:46.316Z,2.20
2023-02-18T07:51:13.921Z,2.00
2023-02-18T07:53:41.802Z,1.80
2023-02-18T07:56:09.879Z,1.80
2023-02-18T07:58:39.596Z,2.10
2023-02-18T08:01:12.363Z,2.00
2023-02-18T08:03:39.926Z,2.20
2023-02-18T08:06:08.611Z,1.50
2023-02-18T08:08:37.255Z,2.40
2023-02-18T08:11:18.411Z,1.80
2023-02-18T08:13:48.912Z,2.90
2023-02-18T08:16:20.937Z,2.30
2023-02-18T08:18:50.901Z,2.00
2023-02-18T08:21:20.354Z,2.10
2023-02-18T08:23:48.622Z,2.80
2023-02-18T08:26:16.924Z,2.50
2023-02-18T08:28:50.194Z,1.80
2023-02-18T08:31:23.404Z,2.70
2023-02-18T08:33:51.146Z,5.50
2023-02-18T08:36:20.160Z,2.90
2023-02-18T08:38:48.353Z,3.10
2023-02-18T08:41:19.529Z,1.50
2023-02-18T08:43:51.132Z,2.50
2023-02-18T08:46:33.383Z,2.40
2023-02-18T08:49:04.341Z,2.00
2023-02-18T08:51:32.053Z,2.70
2023-02-18T08:53:59.444Z,3.50
2023-02-18T08:56:27.142Z,1.90
2023-02-18T08:58:55.888Z,2.30
2023-02-18T09:01:23.225Z,2.80
2023-02-18T09:03:50.818Z,1.70
2023-02-18T09:06:18.351Z,2.00
2023-02-18T09:08:46.470Z,2.40
2023-02-18T09:11:14.277Z,2.30
2023-02-18T09:13:41.607Z,1.80
2023-02-18T09:16:14.166Z,2.60
2023-02-18T09:18:43.186Z,2.20
2023-02-18T09:21:13.053Z,2.10
2023-02-18T09:23:42.834Z,3.00
2023-02-18T09:26:16.039Z,2.40
2023-02-18T09:28:46.932Z,2.70
2023-02-18T09:31:18.347Z,2.30
2023-02-18T09:34:29.264Z,1.90
2023-02-18T09:36:58.855Z,2.00
2023-02-18T09:39:27.648Z,1.60
2023-02-18T09:42:03.376Z,1.70
2023-02-18T09:44:42.578Z,1.40
2023-02-18T09:47:33.547Z,2.90
2023-02-18T09:50:37.794Z,2.50
2023-02-18T09:53:25.732Z,1.60
2023-02-18T09:56:01.862Z,3.30
2023-02-18T10:01:32.012Z,1.70
2023-02-18T10:04:04.514Z,4.40
2023-02-18T10:06:35.152Z,7.10
2023-02-18T10:09:06.803Z,2.10
2023-02-18T10:11:41.951Z,2.00
2023-02-18T10:14:15.473Z,2.80
2023-02-18T10:16:44.879Z,1.30
2023-02-18T10:19:53.455Z,1.80
2023-02-18T10:22:23.472Z,2.30
2023-02-18T10:24:56.318Z,3.00
2023-02-18T10:27:27.581Z,1.80
2023-02-18T10:30:21.442Z,2.70
2023-02-18T10:33:08.641Z,1.60
2023-02-18T10:35:49.696Z,2.10
2023-02-18T10:38:35.730Z,4.90
2023-02-18T10:41:11.096Z,3.40
2023-02-18T10:43:58.408Z,2.20
2023-02-18T10:46:48.762Z,2.90
2023-02-18T10:49:46.154Z,2.30
2023-02-18T10:52:18.581Z,2.30
2023-02-18T10:54:58.340Z,1.40
2023-02-18T10:57:26.729Z,1.90
2023-02-18T11:00:24.416Z,3.40
2023-02-18T11:03:15.674Z,3.10
2023-02-18T11:05:43.989Z,1.60
2023-02-18T11:08:25.922Z,3.60
2023-02-18T11:10:57.583Z,1.50
2023-02-18T11:13:29.273Z,2.00
2023-02-18T11:16:00.716Z,1.60
2023-02-18T11:18:40.983Z,1.30
2023-02-18T11:21:32.249Z,1.40
2023-02-18T11:24:13.620Z,2.70
2023-02-18T11:26:41.763Z,2.30
2023-02-18T11:29:28.451Z,2.80
2023-02-18T11:32:33.498Z,1.90
2023-02-18T11:58:17.551Z,2.00
2023-02-18T12:00:47.769Z,3.60
2023-02-18T12:03:41.792Z,2.80
2023-02-18T12:06:24.234Z,2.60
2023-02-18T12:09:06.019Z,4.10
2023-02-18T12:11:58.602Z,4.50
2023-02-18T12:14:27.894Z,3.30
2023-02-18T12:17:17.739Z,2.50
2023-02-18T12:19:58.181Z,3.60
2023-02-18T12:22:37.885Z,6.90
2023-02-18T12:25:26.774Z,4.50
2023-02-18T12:28:14.485Z,4.60
2023-02-18T12:31:17.304Z,4.80
2023-02-18T12:33:47.625Z,5.20
2023-02-18T12:36:37.104Z,7.20
2023-02-18T12:39:15.135Z,9.80
2023-02-18T12:42:14.437Z,6.90
2023-02-18T12:45:28.431Z,7.10
2023-02-18T12:48:39.589Z,5.30
2023-02-18T12:51:30.537Z,6.60
2023-02-18T12:54:01.092Z,5.70
2023-02-18T12:56:28.600Z,7.10
2023-02-18T12:59:21.482Z,6.00
2023-02-18T13:02:17.804Z,7.10
2023-02-18T13:05:22.496Z,7.80
2023-02-18T13:08:09.892Z,8.80
2023-02-18T13:11:05.480Z,6.20
2023-02-18T13:13:49.493Z,6.30
2023-02-18T13:16:20.947Z,6.00
2023-02-18T13:18:59.109Z,5.80
2023-02-18T13:21:27.829Z,4.70
2023-02-18T13:24:04.364Z,6.20
2023-02-18T13:26:35.400Z,5.90
2023-02-18T13:29:16.669Z,5.30
2023-02-18T13:32:11.671Z,5.30
2023-02-18T13:34:53.748Z,4.50
2023-02-18T13:37:53.898Z,7.70
2023-02-18T13:40:31.364Z,5.60
2023-02-18T13:43:40.644Z,5.10
2023-02-18T13:46:10.269Z,7.30
2023-02-18T13:48:51.464Z,6.20
2023-02-18T13:51:54.599Z,7.20
2023-02-18T13:54:50.554Z,7.20
2023-02-18T13:57:30.427Z,4.60
2023-02-18T14:00:04.539Z,5.60
2023-02-18T14:02:39.478Z,5.20
2023-02-18T14:05:09.338Z,4.30
2023-02-18T14:07:37.922Z,4.90
2023-02-18T14:10:26.482Z,6.20
2023-02-18T14:12:59.129Z,6.60
2023-02-18T14:15:33.479Z,7.00
2023-02-18T14:18:15.170Z,6.10
2023-02-18T14:20:54.620Z,7.10
2023-02-18T14:23:23.444Z,5.70
2023-02-18T14:26:03.397Z,5.80
2023-02-18T14:28:51.319Z,8.10
2023-02-18T14:31:51.194Z,9.60
2023-02-18T14:34:31.965Z,8.70
2023-02-18T14:37:28.413Z,7.20
2023-02-18T14:40:08.575Z,11.00
2023-02-18T14:43:05.084Z,7.60
2023-02-18T14:45:52.365Z,9.30
2023-02-18T14:48:59.917Z,9.20
2023-02-18T14:51:33.682Z,14.30
2023-02-18T14:54:14.973Z,12.20
2023-02-18T14:57:10.430Z,21.00
2023-02-18T14:59:47.630Z,21.20
2023-02-18T15:02:20.773Z,16.80
2023-02-18T15:04:52.802Z,22.20
2023-02-18T15:07:25.088Z,18.20
2023-02-18T15:09:58.968Z,16.10
2023-02-18T15:12:30.372Z,16.40
2023-02-18T15:15:06.636Z,19.00
2023-02-18T15:20:10.720Z,15.10
2023-02-18T15:22:41.964Z,13.10
2023-02-18T15:25:17.358Z,16.30
2023-02-18T15:27:49.521Z,20.60
2023-02-18T15:30:31.083Z,15.10
2023-02-18T15:33:02.503Z,16.00
2023-02-18T15:35:34.823Z,15.00
2023-02-18T15:38:09.500Z,15.10
2023-02-18T15:40:43.101Z,15.30
2023-02-18T15:43:20.678Z,13.90
2023-02-18T15:45:53.657Z,14.30
2023-02-18T15:48:35.417Z,14.70
2023-02-18T15:51:17.052Z,14.50
2023-02-18T15:53:55.678Z,12.50
2023-02-18T15:56:40.349Z,17.00
2023-02-18T15:59:28.846Z,16.10
2023-02-18T16:02:07.035Z,17.60
2023-02-18T16:04:43.451Z,15.70
2023-02-18T16:07:30.303Z,20.60
2023-02-18T16:11:04.836Z,22.00
2023-02-18T16:13:36.922Z,28.70
2023-02-18T16:16:09.960Z,38.40
2023-02-18T16:18:51.868Z,31.50
2023-02-18T16:24:25.384Z,42.30
2023-02-18T16:26:59.087Z,40.10
2023-02-18T16:29:40.622Z,36.80
2023-02-18T16:32:11.973Z,32.00
2023-02-18T16:34:42.231Z,30.40
2023-02-18T16:37:35.321Z,28.80
2023-02-18T16:40:08.263Z,26.90
2023-02-18T16:42:48.557Z,20.50
2023-02-18T16:45:22.475Z,19.20
2023-02-18T16:47:53.577Z,19.90
2023-02-18T16:50:24.599Z,24.90
2023-02-18T16:52:58.117Z,17.50
2023-02-18T16:55:35.207Z,18.50
2023-02-18T16:58:09.250Z,16.40
2023-02-18T17:00:40.744Z,17.20
2023-02-18T17:03:12.657Z,15.20
2023-02-18T17:05:45.439Z,18.60
2023-02-18T17:08:26.584Z,20.50
2023-02-18T17:11:03.566Z,17.80
2023-02-18T17:13:35.579Z,17.00
2023-02-18T17:16:20.679Z,16.70
2023-02-18T17:18:51.427Z,17.00
2023-02-18T17:21:24.925Z,17.60
2023-02-18T17:23:57.146Z,17.60
2023-02-18T17:26:32.275Z,16.10
2023-02-18T17:29:15.605Z,16.40
2023-02-18T17:31:51.336Z,17.30
2023-02-18T17:34:35.722Z,17.00
2023-02-18T17:37:07.024Z,16.40
2023-02-18T17:39:40.568Z,16.40
2023-02-18T17:42:13.532Z,16.40
2023-02-18T17:44:45.355Z,15.50
2023-02-18T17:47:15.877Z,15.70
2023-02-18T17:49:48.361Z,14.10
2023-02-18T17:52:37.908Z,14.40
2023-02-18T17:55:29.232Z,14.00
2023-02-18T17:58:01.987Z,12.00
2023-02-18T18:00:44.625Z,13.10
2023-02-18T18:03:17.767Z,12.50
2023-02-18T18:05:50.089Z,12.80
2023-02-18T18:08:21.443Z,10.30
2023-02-18T18:11:02.400Z,12.20
2023-02-18T18:13:36.858Z,8.20
2023-02-18T18:16:09.476Z,7.90
2023-02-18T18:18:39.359Z,7.10
2023-02-18T18:21:16.176Z,8.80
2023-02-18T18:23:48.320Z,7.50
2023-02-18T18:29:05.707Z,6.10
2023-02-18T18:34:29.431Z,7.50
2023-02-18T18:37:03.111Z,6.40
2023-02-18T18:42:36.659Z,4.70
2023-02-18T18:45:08.209Z,7.70
2023-02-18T18:47:48.953Z,6.30
2023-02-18T18:50:20.781Z,6.90
2023-02-18T18:52:54.543Z,6.20
2023-02-18T18:55:37.501Z,5.90
2023-02-18T18:58:09.792Z,6.30
2023-02-18T19:03:35.410Z,4.90
2023-02-18T19:06:09.546Z,5.20
2023-02-18T19:08:39.394Z,4.40
2023-02-18T19:14:02.849Z,4.80
2023-02-18T19:17:02.476Z,6.10
2023-02-18T19:19:39.640Z,4.90
2023-02-18T19:22:11.489Z,3.90
2023-02-18T19:24:47.796Z,5.40
2023-02-18T19:29:56.626Z,3.90
2023-02-18T19:32:27.016Z,3.80
2023-02-18T19:35:09.787Z,3.60
2023-02-18T19:37:50.813Z,4.70
2023-02-18T19:40:36.046Z,5.20
2023-02-18T19:43:18.123Z,3.90
2023-02-18T19:45:53.086Z,2.80
2023-02-18T19:48:32.970Z,3.40
2023-02-18T19:51:11.442Z,3.30
2023-02-18T19:54:00.297Z,5.00
2023-02-18T19:56:41.091Z,3.90
2023-02-18T19:59:15.876Z,4.10
2023-02-18T20:01:50.868Z,4.20
2023-02-18T20:04:22.785Z,4.50
2023-02-18T20:07:06.336Z,4.10
2023-02-18T20:09:44.034Z,3.80
2023-02-18T20:12:15.568Z,3.70
2023-02-18T20:14:51.652Z,3.10
2023-02-18T20:17:35.987Z,3.40
2023-02-18T20:20:14.878Z,3.50
2023-02-18T20:22:45.745Z,3.10
2023-02-18T20:25:24.971Z,3.00
2023-02-18T20:28:01.114Z,3.50
2023-02-18T20:30:47.819Z,5.10
2023-02-18T20:33:28.006Z,3.30
2023-02-18T20:36:15.269Z,2.70
2023-02-18T20:39:02.444Z,2.50
2023-02-18T20:41:39.397Z,2.80
2023-02-18T20:44:22.172Z,1.80
2023-02-18T20:46:54.634Z,4.30
2023-02-18T20:49:26.496Z,2.20
2023-02-18T20:51:58.650Z,11.10
2023-02-18T20:54:31.266Z,4.10
2023-02-18T20:57:02.138Z,3.30
2023-02-18T20:59:38.482Z,7.40
2023-02-18T21:04:38.569Z,13.00
2023-02-18T21:07:11.546Z,3.10
2023-02-18T21:09:42.835Z,3.00
2023-02-18T21:12:13.323Z,2.50
2023-02-18T21:14:43.952Z,3.50
2023-02-18T21:17:23.151Z,3.90
2023-02-18T21:19:57.298Z,2.60
2023-02-18T21:22:27.620Z,2.10
2023-02-18T21:24:57.528Z,2.30
2023-02-18T21:27:27.050Z,2.40
2023-02-18T21:29:58.429Z,2.90
2023-02-18T21:32:29.181Z,2.50
2023-02-18T21:35:00.887Z,2.00
2023-02-18T21:37:32.653Z,3.00
2023-02-18T21:40:05.161Z,4.50
2023-02-18T21:42:36.351Z,4.30
2023-02-18T21:45:10.662Z,4.20
2023-02-18T21:47:41.783Z,2.30
2023-02-18T21:50:11.468Z,2.00
2023-02-18T21:52:42.386Z,3.60
2023-02-18T21:55:12.187Z,3.00
2023-02-18T21:57:42.210Z,2.10
2023-02-18T22:00:21.233Z,3.20
2023-02-18T22:02:51.512Z,1.70
2023-02-18T22:05:23.260Z,2.90
2023-02-18T22:07:51.745Z,1.70
2023-02-18T22:10:21.651Z,2.20
2023-02-18T22:12:51.825Z,3.60
2023-02-18T22:15:21.211Z,2.90
2023-02-18T22:17:50.301Z,2.00
2023-02-18T22:20:19.748Z,3.40
2023-02-18T22:22:49.042Z,2.60
2023-02-18T22:25:16.878Z,2.50
2023-02-18T22:27:46.350Z,2.00
2023-02-18T22:30:15.290Z,3.20
2023-02-18T22:32:43.210Z,2.70
2023-02-18T22:35:11.580Z,2.60
2023-02-18T22:37:39.852Z,2.30
2023-02-18T22:40:07.366Z,2.30
2023-02-18T22:42:36.755Z,2.40
2023-02-18T22:45:04.528Z,2.30
2023-02-18T22:47:31.980Z,1.50
2023-02-18T22:49:59.363Z,2.30
2023-02-18T22:52:27.254Z,3.10
2023-02-18T22:54:55.091Z,2.20
2023-02-18T22:57:22.900Z,2.10
2023-02-18T22:59:50.585Z,3.00
2023-02-18T23:02:18.098Z,1.80
2023-02-18T23:04:45.712Z,2.00
2023-02-18T23:07:14.819Z,2.90
2023-02-18T23:09:42.480Z,2.10
2023-02-18T23:12:10.356Z,1.70
2023-02-18T23:14:38.475Z,1.80
2023-02-18T23:17:14.964Z,2.10
2023-02-18T23:19:45.502Z,1.60
2023-02-18T23:22:16.706Z,1.10
2023-02-18T23:24:46.460Z,2.80
2023-02-18T23:27:15.926Z,2.10
2023-02-18T23:29:44.275Z,1.30
2023-02-18T23:32:12.416Z,1.80
2023-02-18T23:34:40.121Z,1.70
2023-02-18T23:37:08.338Z,1.60
2023-02-18T23:39:37.113Z,2.10
2023-02-18T23:42:07.255Z,2.10
2023-02-18T23:44:34.890Z,2.40
2023-02-18T23:47:03.106Z,1.80
2023-02-18T23:49:30.313Z,1.80
2023-02-18T23:51:58.801Z,1.90
2023-02-18T23:54:26.588Z,2.70
2023-02-18T23:56:54.188Z,3.00
2023-02-18T23:59:21.530Z,4.40
